createdAt,value
2018-05-01T00:02:09.511Z,7.2
2018-05-01T00:07:09.731Z,7.2
2018-05-01T00:12:09.637Z,7.1
2018-05-01T00:17:09.531Z,7
2018-05-01T00:22:09.524Z,7
2018-05-01T00:27:09.633Z,6.9
2018-05-01T00:32:09.556Z,6.8
2018-05-01T00:37:09.353Z,6.8
2018-05-01T00:42:09.452Z,6.7
2018-05-01T00:47:09.609Z,6.7
2018-05-01T00:52:09.371Z,6.6
2018-05-01T00:57:09.419Z,6.6
2018-05-01T01:02:09.365Z,6.6
2018-05-01T01:07:09.727Z,6.5
2018-05-01T01:12:09.372Z,6.5
2018-05-01T01:17:09.273Z,6.4
2018-05-01T01:22:09.276Z,6.4
2018-05-01T01:27:09.645Z,6.4
2018-05-01T01:32:09.420Z,6.4
2018-05-01T01:37:09.181Z,6.4
2018-05-01T01:42:09.450Z,6.4
2018-05-01T01:47:09.560Z,6.4
2018-05-01T01:52:09.296Z,6.4
2018-05-01T01:57:09.303Z,6.4
2018-05-01T02:02:09.304Z,6.4
2018-05-01T02:07:09.572Z,6.4
2018-05-01T02:12:09.306Z,6.5
2018-05-01T02:17:09.231Z,6.5
2018-05-01T02:22:09.475Z,6.5
2018-05-01T02:27:09.370Z,6.5
2018-05-01T02:32:09.527Z,6.5
2018-05-01T02:37:09.176Z,6.6
2018-05-01T02:42:09.123Z,6.6
2018-05-01T02:47:09.194Z,6.6
2018-05-01T02:52:09.587Z,6.6
2018-05-01T02:57:09.381Z,6.6
2018-05-01T03:02:09.424Z,6.6
2018-05-01T03:07:09.464Z,6.5
2018-05-01T03:12:09.194Z,6.5
2018-05-01T03:17:09.965Z,6.5
2018-05-01T03:22:09.115Z,6.5
2018-05-01T03:27:09.242Z,6.5
2018-05-01T03:32:09.282Z,6.5
2018-05-01T03:37:09.289Z,6.5
2018-05-01T03:42:09.153Z,6.5
2018-05-01T03:47:09.189Z,6.5
2018-05-01T03:52:09.056Z,6.5
2018-05-01T03:57:09.093Z,6.5
2018-05-01T04:02:09.143Z,6.5
2018-05-01T04:07:09.170Z,6.4
2018-05-01T04:12:09.132Z,6.4
2018-05-01T04:17:09.245Z,6.4
2018-05-01T04:22:09.175Z,6.4
2018-05-01T04:27:09.285Z,6.4
2018-05-01T04:32:09.069Z,6.4
2018-05-01T04:37:09.280Z,6.4
2018-05-01T04:42:09.152Z,6.4
2018-05-01T04:47:09.043Z,6.4
2018-05-01T04:52:09.190Z,6.4
2018-05-01T04:57:09.212Z,6.4
2018-05-01T05:02:09.044Z,6.4
2018-05-01T05:07:09.043Z,6.4
2018-05-01T05:12:09.003Z,6.3
2018-05-01T05:17:08.876Z,6.3
2018-05-01T05:22:08.890Z,6.3
2018-05-01T05:27:09.186Z,6.3
2018-05-01T05:32:09.067Z,6.2
2018-05-01T05:37:09.087Z,6.3
2018-05-01T05:42:09.065Z,6.3
2018-05-01T05:47:08.853Z,6.3
2018-05-01T05:52:08.811Z,6.3
2018-05-01T05:57:08.862Z,6.3
2018-05-01T06:02:08.799Z,6.3
2018-05-01T06:07:08.898Z,6.4
2018-05-01T06:12:08.967Z,6.4
2018-05-01T06:17:08.877Z,6.4
2018-05-01T06:22:09.137Z,6.4
2018-05-01T06:27:08.820Z,6.4
2018-05-01T06:32:08.832Z,6.4
2018-05-01T06:37:09.078Z,6.4
2018-05-01T06:42:08.914Z,6.5
2018-05-01T06:47:08.738Z,6.5
2018-05-01T06:52:08.779Z,6.5
2018-05-01T06:57:09.051Z,6.5
2018-05-01T07:02:08.827Z,6.6
2018-05-01T07:07:08.677Z,6.6
2018-05-01T07:12:08.875Z,6.6
2018-05-01T07:17:08.992Z,6.7
2018-05-01T07:22:08.846Z,6.7
2018-05-01T07:27:08.894Z,6.7
2018-05-01T07:32:08.981Z,6.7
2018-05-01T07:37:08.673Z,6.8
2018-05-01T07:42:08.785Z,6.8
2018-05-01T07:47:08.859Z,6.8
2018-05-01T07:52:08.828Z,6.9
2018-05-01T07:57:08.982Z,6.9
2018-05-01T08:02:08.671Z,7
2018-05-01T08:07:08.881Z,7
2018-05-01T08:12:08.719Z,7
2018-05-01T08:17:08.759Z,7.1
2018-05-01T08:22:08.742Z,7.2
2018-05-01T08:27:08.978Z,7.4
2018-05-01T08:32:08.705Z,7.7
2018-05-01T08:37:08.574Z,7.8
2018-05-01T08:42:08.773Z,8
2018-05-01T08:47:08.833Z,8.1
2018-05-01T08:52:08.597Z,8.1
2018-05-01T08:57:08.933Z,8.3
2018-05-01T09:02:08.618Z,8.3
2018-05-01T09:07:08.642Z,8.6
2018-05-01T09:12:08.779Z,8.8
2018-05-01T09:17:08.674Z,8.9
2018-05-01T09:22:08.816Z,9.1
2018-05-01T09:27:08.784Z,9.2
2018-05-01T09:32:08.859Z,9.2
2018-05-01T09:37:08.491Z,9.3
2018-05-01T09:42:08.796Z,9.4
2018-05-01T09:47:08.563Z,9.4
2018-05-01T09:52:08.514Z,9.5
2018-05-01T09:57:08.755Z,9.5
2018-05-01T10:02:08.672Z,9.6
2018-05-01T10:07:08.667Z,9.6
2018-05-01T10:12:08.474Z,9.7
2018-05-01T10:17:08.511Z,9.9
2018-05-01T10:22:08.731Z,10
2018-05-01T10:27:08.735Z,10.2
2018-05-01T10:32:08.431Z,10.3
2018-05-01T10:37:08.600Z,10.5
2018-05-01T10:42:08.743Z,10.5
2018-05-01T10:47:08.593Z,10.6
2018-05-01T10:52:08.617Z,10.6
2018-05-01T10:57:08.677Z,10.6
2018-05-01T11:02:08.503Z,10.6
2018-05-01T11:07:08.400Z,10.8
2018-05-01T11:12:08.457Z,10.9
2018-05-01T11:17:08.632Z,11
2018-05-01T11:22:08.293Z,11.3
2018-05-01T11:27:08.585Z,11.4
2018-05-01T11:32:08.659Z,11.5
2018-05-01T11:37:08.540Z,11.7
2018-05-01T11:42:08.526Z,11.8
2018-05-01T11:47:08.446Z,12.1
2018-05-01T11:52:08.465Z,12.3
2018-05-01T11:57:08.414Z,12.5
2018-05-01T12:02:08.605Z,12.6
2018-05-01T12:07:08.490Z,12.6
2018-05-01T12:12:08.558Z,12.8
2018-05-01T12:17:08.527Z,12.8
2018-05-01T12:22:08.644Z,12.9
2018-05-01T12:27:08.303Z,12.9
2018-05-01T12:32:08.228Z,13
2018-05-01T12:37:08.687Z,12.9
2018-05-01T12:42:08.357Z,13
2018-05-01T12:47:08.218Z,13
2018-05-01T12:52:08.237Z,13
2018-05-01T12:57:08.262Z,13.1
2018-05-01T13:02:08.238Z,13.3
2018-05-01T13:07:08.267Z,13.3
2018-05-01T13:12:08.341Z,13.6
2018-05-01T13:17:08.247Z,13.6
2018-05-01T13:22:08.351Z,13.7
2018-05-01T13:27:08.093Z,13.8
2018-05-01T13:32:08.224Z,13.9
2018-05-01T13:37:08.383Z,14
2018-05-01T13:42:08.456Z,13.9
2018-05-01T13:47:08.430Z,14
2018-05-01T13:52:08.216Z,14
2018-05-01T13:57:08.246Z,13.9
2018-05-01T14:02:08.136Z,13.9
2018-05-01T14:07:08.437Z,13.8
2018-05-01T14:12:08.313Z,13.7
2018-05-01T14:17:08.185Z,13.7
2018-05-01T14:22:08.149Z,13.7
2018-05-01T14:27:08.145Z,13.7
2018-05-01T14:32:08.246Z,13.5
2018-05-01T14:37:08.368Z,13.5
2018-05-01T14:42:08.357Z,13.4
2018-05-01T14:47:08.291Z,13.4
2018-05-01T14:52:08.196Z,13.4
2018-05-01T14:57:08.148Z,13.5
2018-05-01T15:02:08.108Z,13.6
2018-05-01T15:07:08.394Z,13.6
2018-05-01T15:12:08.040Z,13.7
2018-05-01T15:17:08.185Z,13.7
2018-05-01T15:22:08.218Z,13.7
2018-05-01T15:27:08.111Z,13.7
2018-05-01T15:32:08.023Z,13.6
2018-05-01T15:37:08.318Z,13.6
2018-05-01T15:42:07.974Z,13.5
2018-05-01T15:47:08.142Z,13.5
2018-05-01T15:52:08.270Z,13.3
2018-05-01T15:57:07.947Z,13.2
2018-05-01T16:02:08.015Z,13.1
2018-05-01T16:07:08.021Z,13.1
2018-05-01T16:12:08.176Z,13
2018-05-01T16:17:08.132Z,12.9
2018-05-01T16:22:07.907Z,12.8
2018-05-01T16:27:08.245Z,12.8
2018-05-01T16:32:07.949Z,12.7
2018-05-01T16:37:07.952Z,12.6
2018-05-01T16:42:08.019Z,12.5
2018-05-01T16:47:08.214Z,12.4
2018-05-01T16:52:08.269Z,12.3
2018-05-01T16:57:07.943Z,12.3
2018-05-01T17:02:08.107Z,12.2
2018-05-01T17:07:07.992Z,12.1
2018-05-01T17:12:08.210Z,12.1
2018-05-01T17:17:08.183Z,12.1
2018-05-01T17:22:07.984Z,11.8
2018-05-01T17:27:07.927Z,11.7
2018-05-01T17:32:08.028Z,11.7
2018-05-01T17:37:07.737Z,11.7
2018-05-01T17:42:08.031Z,11.7
2018-05-01T17:47:08.113Z,11.7
2018-05-01T17:52:07.819Z,11.6
2018-05-01T17:57:08.056Z,11.5
2018-05-01T18:02:07.945Z,11.5
2018-05-01T18:07:07.833Z,11.4
2018-05-01T18:12:08.023Z,11.4
2018-05-01T18:17:07.962Z,11.4
2018-05-01T18:22:07.916Z,11.3
2018-05-01T18:27:08.378Z,11.3
2018-05-01T18:32:08.011Z,11.2
2018-05-01T18:37:08.003Z,11.2
2018-05-01T18:42:07.704Z,11.1
2018-05-01T18:47:07.777Z,11.1
2018-05-01T18:52:08.015Z,11
2018-05-01T18:57:07.895Z,10.9
2018-05-01T19:02:07.694Z,10.9
2018-05-01T19:07:07.989Z,10.8
2018-05-01T19:12:07.662Z,10.7
2018-05-01T19:17:08.082Z,10.6
2018-05-01T19:22:07.845Z,10.4
2018-05-01T19:27:08.016Z,10.4
2018-05-01T19:32:07.862Z,10.3
2018-05-01T19:37:07.700Z,10.1
2018-05-01T19:42:07.692Z,10.1
2018-05-01T19:47:07.837Z,10
2018-05-01T19:52:07.670Z,9.9
2018-05-01T19:57:07.873Z,9.9
2018-05-01T20:02:08.221Z,9.8
2018-05-01T20:07:07.908Z,9.8
2018-05-01T20:12:07.663Z,9.7
2018-05-01T20:17:07.677Z,9.7
2018-05-01T20:22:07.905Z,9.6
2018-05-01T20:27:07.581Z,9.6
2018-05-01T20:32:07.918Z,9.6
2018-05-01T20:37:07.802Z,9.6
2018-05-01T20:42:07.867Z,9.7
2018-05-01T20:47:07.811Z,9.8
2018-05-01T20:52:07.834Z,9.8
2018-05-01T20:57:07.837Z,9.8
2018-05-01T21:02:07.639Z,9.8
2018-05-01T21:07:07.619Z,9.8
2018-05-01T21:12:07.542Z,9.8
2018-05-01T21:17:07.832Z,9.7
2018-05-01T21:22:07.900Z,9.7
2018-05-01T21:27:07.731Z,9.7
2018-05-01T21:32:07.752Z,9.6
2018-05-01T21:37:07.789Z,9.6
2018-05-01T21:42:07.598Z,9.6
2018-05-01T21:47:07.840Z,9.5
2018-05-01T21:52:07.671Z,9.3
2018-05-01T21:57:07.785Z,9.3
2018-05-01T22:02:07.472Z,9.2
2018-05-01T22:07:07.569Z,9.1
2018-05-01T22:12:07.579Z,9
2018-05-01T22:17:07.814Z,9
2018-05-01T22:22:07.745Z,8.9
2018-05-01T22:27:07.633Z,8.8
2018-05-01T22:32:07.417Z,8.7
2018-05-01T22:37:07.617Z,8.6
2018-05-01T22:42:07.742Z,8.5
2018-05-01T22:47:07.373Z,8.4
2018-05-01T22:52:07.597Z,8.4
2018-05-01T22:57:07.325Z,8.3
2018-05-01T23:02:07.455Z,8.3
2018-05-01T23:07:07.504Z,8.3
2018-05-01T23:12:07.462Z,8.2
2018-05-01T23:17:07.309Z,8.1
2018-05-01T23:22:07.363Z,8.1
2018-05-01T23:27:07.301Z,8.1
2018-05-01T23:32:07.464Z,8
2018-05-01T23:37:07.549Z,8
2018-05-01T23:42:07.317Z,8
2018-05-01T23:47:07.492Z,7.9
2018-05-01T23:52:07.314Z,7.9
2018-05-01T23:57:07.604Z,7.9
